Time;durP1;ratioP1;P1;durP2;ratioP2;P2;SDS_P1;SDS_P2;PMS_P1;PMS_P2;Temp;Humidity;BMP_temperature;BMP_pressure;BME280_temperature;BME280_humidity;BME280_pressure;Samples;Min_cycle;Max_cycle;Signal;HPM_P1;HPM_P2
2024/03/02 00:01:11;;;;;;;38.05;17.55;;;;;;;-140.81;100.00;62400.31;5026992;28;20535;-49
2024/03/02 00:03:38;;;;;;;40.63;17.63;;;;;;;-140.81;100.00;62400.31;5027601;28;20045;-48
2024/03/02 00:06:04;;;;;;;41.50;17.10;;;;;;;-140.81;100.00;62400.31;5028070;28;20037;-52
2024/03/02 00:08:30;;;;;;;40.75;17.15;;;;;;;-140.81;100.00;62400.31;5009745;28;20504;-54
2024/03/02 00:11:02;;;;;;;40.10;16.20;;;;;;;-140.81;100.00;62400.31;5025691;28;20132;-52
2024/03/02 00:13:30;;;;;;;39.53;17.58;;;;;;;-140.81;100.00;62400.31;5027042;28;20041;-48
2024/03/02 00:15:57;;;;;;;38.38;18.08;;;;;;;-140.81;100.00;62400.31;5043318;28;20520;-52
2024/03/02 00:18:30;;;;;;;37.83;18.60;;;;;;;-140.81;100.00;62400.31;5027652;28;20751;-53
2024/03/02 00:20:57;;;;;;;38.85;17.67;;;;;;;-140.81;100.00;62400.31;5027526;28;20037;-53
2024/03/02 00:23:25;;;;;;;35.45;16.15;;;;;;;-140.81;100.00;62400.31;5026429;28;20057;-51
2024/03/02 00:25:53;;;;;;;39.67;16.80;;;;;;;-140.81;100.00;62400.31;5026137;28;20041;-49
2024/03/02 00:28:22;;;;;;;42.28;17.15;;;;;;;-140.81;100.00;62400.31;5028079;28;20045;-47
2024/03/02 00:30:54;;;;;;;36.88;15.88;;;;;;;-140.81;100.00;62400.31;5026243;28;20124;-48
2024/03/02 00:33:21;;;;;;;42.53;17.38;;;;;;;-140.81;100.00;62400.31;5027425;28;20560;-48
2024/03/02 00:35:49;;;;;;;39.63;18.33;;;;;;;-140.81;100.00;62400.31;5027537;28;20041;-51
2024/03/02 00:38:15;;;;;;;37.35;17.13;;;;;;;-140.81;100.00;62400.31;5026020;28;20045;-47
2024/03/02 00:40:45;;;;;;;40.75;18.25;;;;;;;-140.81;100.00;62400.31;5027329;28;20053;-50
2024/03/02 00:43:49;;;;;;;40.83;17.38;;;;;;;-140.81;100.00;62400.31;5022772;28;20057;-47
2024/03/02 00:46:18;;;;;;;48.92;19.48;;;;;;;-140.81;100.00;62400.31;5027406;28;20056;-51
2024/03/02 00:49:01;;;;;;;37.53;16.52;;;;;;;-140.81;100.00;62400.31;5025697;28;20722;-51
2024/03/02 00:51:30;;;;;;;35.88;16.27;;;;;;;-140.81;100.00;62400.31;5025957;28;20072;-49
2024/03/02 00:53:59;;;;;;;36.93;17.57;;;;;;;-140.81;100.00;62400.31;5026296;28;20796;-50
2024/03/02 00:56:26;;;;;;;44.63;18.33;;;;;;;-140.81;100.00;62400.31;5009321;28;20295;-51
2024/03/02 00:58:52;;;;;;;46.08;18.52;;;;;;;-140.81;100.00;62400.31;5025473;28;20045;-52
2024/03/02 01:01:19;;;;;;;44.83;17.52;;;;;;;-140.81;100.00;62400.31;5025522;28;20070;-49
2024/03/02 01:03:46;;;;;;;47.55;17.52;;;;;;;-140.81;100.00;62400.31;5024193;28;20328;-49
2024/03/02 01:06:12;;;;;;;42.47;18.00;;;;;;;-140.81;100.00;62400.31;5025625;28;20080;-48
2024/03/02 01:08:39;;;;;;;42.10;17.33;;;;;;;-140.81;100.00;62400.31;5025973;28;20509;-47
2024/03/02 01:11:05;;;;;;;42.15;17.63;;;;;;;-140.81;100.00;62400.31;5026682;28;20037;-54
2024/03/02 01:13:31;;;;;;;48.00;18.40;;;;;;;-140.81;100.00;62400.31;5025403;28;20432;-53
2024/03/02 01:15:58;;;;;;;49.80;17.52;;;;;;;-140.81;100.00;62400.31;5027846;28;20548;-48
2024/03/02 01:18:24;;;;;;;42.53;17.80;;;;;;;-140.81;100.00;62400.31;5026403;28;20049;-50
2024/03/02 01:20:55;;;;;;;48.65;19.02;;;;;;;-140.81;100.00;62400.31;5009178;28;20052;-51
2024/03/02 01:23:23;;;;;;;38.58;17.70;;;;;;;-140.81;100.00;62400.31;5027004;28;20172;-49
2024/03/02 01:25:50;;;;;;;44.95;18.13;;;;;;;-140.81;100.00;62400.31;5026532;28;20041;-46
2024/03/02 01:28:16;;;;;;;44.53;17.45;;;;;;;-140.81;100.00;62400.31;5026692;28;20037;-50
2024/03/02 01:30:42;;;;;;;46.70;17.58;;;;;;;-140.81;100.00;62400.31;5025791;28;20048;-53
2024/03/02 01:33:09;;;;;;;43.22;19.08;;;;;;;-140.81;100.00;62400.31;4992469;28;20049;-51
2024/03/02 01:35:35;;;;;;;38.92;18.52;;;;;;;-140.81;100.00;62400.31;5009017;28;20531;-52
2024/03/02 01:38:01;;;;;;;41.35;17.08;;;;;;;-140.81;100.00;62400.31;5025029;28;20037;-53
2024/03/02 01:40:28;;;;;;;43.40;18.77;;;;;;;-140.81;100.00;62400.31;5026002;28;20045;-53
2024/03/02 01:42:54;;;;;;;37.20;17.75;;;;;;;-140.81;100.00;62400.31;5005835;28;20045;-51
2024/03/02 01:45:20;;;;;;;42.22;16.88;;;;;;;-140.81;100.00;62400.31;5008275;28;20045;-50
2024/03/02 01:47:47;;;;;;;43.53;18.63;;;;;;;-140.81;100.00;62400.31;5024751;28;20041;-51
2024/03/02 01:50:13;;;;;;;48.88;19.23;;;;;;;-140.81;100.00;62400.31;5026408;28;20045;-52
2024/03/02 01:52:39;;;;;;;41.58;18.95;;;;;;;-140.81;100.00;62400.31;5025302;28;20410;-53
2024/03/02 01:55:06;;;;;;;45.05;19.27;;;;;;;-140.81;100.00;62400.31;5006686;28;20054;-52
2024/03/02 01:57:33;;;;;;;44.40;18.55;;;;;;;-140.81;100.00;62400.31;5018305;28;20041;-50
2024/03/02 01:59:58;;;;;;;44.67;18.20;;;;;;;-140.81;100.00;62400.31;5024917;28;20132;-51
2024/03/02 02:02:24;;;;;;;46.78;20.10;;;;;;;-140.81;100.00;62400.31;5007408;28;20139;-51
2024/03/02 02:04:50;;;;;;;51.25;18.80;;;;;;;-140.81;100.00;62400.31;5025023;28;20433;-51
2024/03/02 02:07:16;;;;;;;49.83;20.75;;;;;;;-140.81;100.00;62400.31;5026519;28;20044;-51
2024/03/02 02:09:42;;;;;;;38.88;18.20;;;;;;;-140.81;100.00;62400.31;5025207;28;20048;-53
2024/03/02 02:12:09;;;;;;;45.92;18.60;;;;;;;-140.81;100.00;62400.31;5018030;28;20041;-49
2024/03/02 02:14:35;;;;;;;38.42;17.05;;;;;;;-140.81;100.00;62400.31;5024382;28;20037;-51
2024/03/02 02:17:02;;;;;;;38.53;17.45;;;;;;;-140.81;100.00;62400.31;5024803;28;20049;-53
2024/03/02 02:19:28;;;;;;;49.38;18.73;;;;;;;-140.81;100.00;62400.31;5024147;28;20484;-50
2024/03/02 02:21:54;;;;;;;42.92;18.25;;;;;;;-140.81;100.00;62400.31;5023317;28;20033;-50
2024/03/02 02:24:21;;;;;;;45.97;17.63;;;;;;;-140.81;100.00;62400.31;5025880;28;20045;-50
2024/03/02 02:26:47;;;;;;;40.78;17.90;;;;;;;-140.81;100.00;62400.31;5024161;28;20037;-50
2024/03/02 02:29:13;;;;;;;48.22;17.67;;;;;;;-140.81;100.00;62400.31;5024610;28;20041;-47
2024/03/02 02:31:40;;;;;;;49.85;18.38;;;;;;;-140.81;100.00;62400.31;5025638;28;20037;-49
2024/03/02 02:34:06;;;;;;;46.47;18.38;;;;;;;-140.81;100.00;62400.31;5023305;28;20056;-49
2024/03/02 02:36:37;;;;;;;44.67;19.23;;;;;;;-140.81;100.00;62400.31;5025702;28;20128;-48
2024/03/02 02:39:04;;;;;;;40.63;18.42;;;;;;;-140.81;100.00;62400.31;5007676;28;20044;-49
2024/03/02 02:41:30;;;;;;;41.55;17.08;;;;;;;-140.81;100.00;62400.31;5003950;28;20624;-52
2024/03/02 02:43:56;;;;;;;43.25;17.15;;;;;;;-140.81;100.00;62400.31;5035475;28;20057;-52
2024/03/02 02:46:22;;;;;;;41.90;18.23;;;;;;;-140.81;100.00;62400.31;5024448;28;20038;-50
2024/03/02 02:48:48;;;;;;;44.45;18.48;;;;;;;-140.81;100.00;62400.31;5007712;28;20048;-51
2024/03/02 02:51:14;;;;;;;43.50;18.75;;;;;;;-140.81;100.00;62400.31;5024144;28;20531;-52
2024/03/02 02:53:40;;;;;;;43.20;17.67;;;;;;;-140.81;100.00;62400.31;5007020;28;20072;-50
2024/03/02 02:56:06;;;;;;;40.97;18.02;;;;;;;-140.81;100.00;62400.31;5024524;28;20041;-48
2024/03/02 02:58:32;;;;;;;39.40;18.70;;;;;;;-140.81;100.00;62400.31;5023885;28;20049;-49
2024/03/02 03:00:58;;;;;;;41.28;17.80;;;;;;;-140.81;100.00;62400.31;5023932;28;20040;-49
2024/03/02 03:03:24;;;;;;;46.75;18.63;;;;;;;-140.81;100.00;62400.31;5023112;28;20041;-51
2024/03/02 03:05:50;;;;;;;46.88;19.45;;;;;;;-140.81;100.00;62400.31;5022776;28;20049;-48
2024/03/02 03:08:16;;;;;;;40.40;18.90;;;;;;;-140.81;100.00;62400.31;5026054;28;20421;-52
2024/03/02 03:10:42;;;;;;;45.55;18.27;;;;;;;-140.81;100.00;62400.31;5025625;28;20033;-48
2024/03/02 03:13:08;;;;;;;41.42;18.20;;;;;;;-140.81;100.00;62400.31;5056793;28;20033;-49
2024/03/02 03:15:36;;;;;;;39.58;19.83;;;;;;;-140.81;100.00;62400.31;5025013;28;20513;-49
2024/03/02 03:18:05;;;;;;;43.08;18.65;;;;;;;-140.81;100.00;62400.31;5025568;28;20041;-52
2024/03/02 03:20:31;;;;;;;44.45;18.77;;;;;;;-140.81;100.00;62400.31;5025520;28;20420;-52
2024/03/02 03:22:57;;;;;;;40.67;18.15;;;;;;;-140.81;100.00;62400.31;5027708;28;20047;-52
2024/03/02 03:25:23;;;;;;;41.58;19.30;;;;;;;-140.81;100.00;62400.31;5028612;28;20183;-53
2024/03/02 03:27:52;;;;;;;47.97;19.25;;;;;;;-140.81;100.00;62400.31;5028301;28;20575;-51
2024/03/02 03:30:18;;;;;;;40.00;18.23;;;;;;;-140.81;100.00;62400.31;5027656;28;20037;-49
2024/03/02 03:32:45;;;;;;;41.83;17.88;;;;;;;-140.81;100.00;62400.31;5027834;28;20104;-49
2024/03/02 03:35:12;;;;;;;44.92;18.75;;;;;;;-140.81;100.00;62400.31;5028543;28;20623;-53
2024/03/02 03:37:38;;;;;;;41.15;18.58;;;;;;;-140.81;100.00;62400.31;5026975;28;20055;-50
2024/03/02 03:40:09;;;;;;;43.10;17.77;;;;;;;-140.81;100.00;62400.31;5028414;28;20521;-50
2024/03/02 03:42:36;;;;;;;47.22;19.35;;;;;;;-140.81;100.00;62400.31;5027581;28;20045;-51
2024/03/02 03:45:03;;;;;;;41.70;19.25;;;;;;;-140.81;100.00;62400.31;5027862;28;20140;-51
2024/03/02 03:47:33;;;;;;;41.72;18.13;;;;;;;-140.81;100.00;62400.31;5028531;28;20402;-50
2024/03/02 03:49:59;;;;;;;41.97;18.58;;;;;;;-140.81;100.00;62400.31;5026624;28;20038;-50
2024/03/02 03:52:25;;;;;;;46.47;18.98;;;;;;;-140.81;100.00;62400.31;5027362;28;20042;-48
2024/03/02 03:54:51;;;;;;;46.22;20.17;;;;;;;-140.81;100.00;62400.31;5028296;28;20040;-52
2024/03/02 03:57:17;;;;;;;45.15;18.92;;;;;;;-140.81;100.00;62400.31;5028620;28;20102;-51
2024/03/02 03:59:44;;;;;;;48.85;18.67;;;;;;;-140.81;100.00;62400.31;5026396;28;20029;-51
2024/03/02 04:02:12;;;;;;;47.42;18.90;;;;;;;-140.81;100.00;62400.31;5027109;28;20041;-52
2024/03/02 04:04:38;;;;;;;44.40;19.13;;;;;;;-140.81;100.00;62400.31;5028819;28;20102;-50
2024/03/02 04:07:04;;;;;;;45.65;19.88;;;;;;;-140.81;100.00;62400.31;5026577;28;20144;-49
2024/03/02 04:09:30;;;;;;;52.80;20.90;;;;;;;-140.81;100.00;62400.31;5026259;28;20128;-54
2024/03/02 04:11:56;;;;;;;49.83;20.52;;;;;;;-140.81;100.00;62400.31;5027865;28;20044;-51
2024/03/02 04:14:26;;;;;;;48.25;21.67;;;;;;;-140.81;100.00;62400.31;5025014;28;20045;-47
2024/03/02 04:16:52;;;;;;;;;;;;;;;-140.81;100.00;62400.31;5020135;28;20042;-52
2024/03/02 04:19:17;;;;;;;44.92;19.85;;;;;;;-140.81;100.00;62400.31;5027721;28;20407;-51
2024/03/02 04:21:43;;;;;;;49.17;22.00;;;;;;;-140.81;100.00;62400.31;5027864;28;20064;-47
2024/03/02 04:24:09;;;;;;;52.35;22.83;;;;;;;-140.81;100.00;62400.31;5028239;28;20108;-52
2024/03/02 04:26:35;;;;;;;61.03;25.48;;;;;;;-140.81;100.00;62400.31;5027808;28;20073;-48
2024/03/02 04:29:01;;;;;;;58.00;24.88;;;;;;;-140.81;100.00;62400.31;5027686;28;20517;-53
2024/03/02 04:31:27;;;;;;;57.47;24.85;;;;;;;-140.81;100.00;62400.31;5026825;28;20073;-48
2024/03/02 04:33:54;;;;;;;59.28;25.85;;;;;;;-140.81;100.00;62400.31;5026739;28;20080;-53
2024/03/02 04:36:21;;;;;;;58.80;25.58;;;;;;;-140.81;100.00;62400.31;5026080;28;20056;-51
2024/03/02 04:38:47;;;;;;;60.15;26.40;;;;;;;-140.81;100.00;62400.31;5026671;28;20126;-49
2024/03/02 04:41:12;;;;;;;61.63;27.23;;;;;;;-140.81;100.00;62400.31;5026078;28;20119;-49
2024/03/02 04:43:38;;;;;;;66.22;27.52;;;;;;;-140.81;100.00;62400.31;5027951;28;20047;-50
2024/03/02 04:46:06;;;;;;;54.92;26.27;;;;;;;-140.81;100.00;62400.31;5027242;28;20092;-48
2024/03/02 04:48:31;;;;;;;64.65;28.58;;;;;;;-140.81;100.00;62400.31;5027031;28;20128;-50
2024/03/02 04:50:58;;;;;;;69.32;29.20;;;;;;;-140.81;100.00;62400.31;5025332;28;20045;-51
2024/03/02 04:53:24;;;;;;;64.75;28.92;;;;;;;-140.81;100.00;62400.31;5025921;28;20045;-48
2024/03/02 04:58:34;;;;;;;68.03;30.13;;;;;;;-140.81;100.00;62400.31;5026325;28;20433;-53
2024/03/02 05:01:00;;;;;;;66.22;30.90;;;;;;;-140.81;100.00;62400.31;5026459;28;20041;-48
2024/03/02 05:03:26;;;;;;;68.05;30.77;;;;;;;-140.81;100.00;62400.31;5027074;28;20480;-51
2024/03/02 05:05:52;;;;;;;69.70;30.67;;;;;;;-140.81;100.00;62400.31;5026938;28;20041;-52
2024/03/02 05:08:18;;;;;;;62.80;30.35;;;;;;;-140.81;100.00;62400.31;5026695;28;20425;-52
2024/03/02 05:10:43;;;;;;;67.18;31.17;;;;;;;-140.81;100.00;62400.31;5026362;28;20045;-49
2024/03/02 05:13:09;;;;;;;64.68;29.95;;;;;;;-140.81;100.00;62400.31;5023653;28;20178;-52
2024/03/02 05:15:35;;;;;;;67.53;30.88;;;;;;;-140.81;100.00;62400.31;5026811;28;20136;-54
2024/03/02 05:18:05;;;;;;;74.70;32.83;;;;;;;-140.81;100.00;62400.31;5058533;28;20095;-47
2024/03/02 05:20:30;;;;;;;67.28;29.73;;;;;;;-140.81;100.00;62400.31;5025312;28;20107;-52
2024/03/02 05:22:56;;;;;;;68.53;29.33;;;;;;;-140.81;100.00;62400.31;5027479;28;20037;-51
2024/03/02 05:25:22;;;;;;;57.30;27.63;;;;;;;-140.81;100.00;62400.31;5027390;28;20045;-50
2024/03/02 05:27:48;;;;;;;59.85;26.77;;;;;;;-140.81;100.00;62400.31;5009096;28;20041;-51
2024/03/02 05:30:14;;;;;;;57.40;26.50;;;;;;;-140.81;100.00;62400.31;5026201;28;20041;-51
2024/03/02 05:32:40;;;;;;;64.40;27.08;;;;;;;-140.81;100.00;62400.31;5026617;28;20497;-51
2024/03/02 05:35:07;;;;;;;57.88;25.05;;;;;;;-140.81;100.00;62400.31;5026932;28;20532;-49
2024/03/02 05:37:33;;;;;;;51.40;24.05;;;;;;;-140.81;100.00;62400.31;5025782;28;20418;-51
2024/03/02 05:40:00;;;;;;;54.25;23.27;;;;;;;-140.81;100.00;62400.31;5024481;28;20148;-48
2024/03/02 05:42:26;;;;;;;57.15;22.13;;;;;;;-140.81;100.00;62400.31;5024260;28;20037;-52
2024/03/02 05:44:53;;;;;;;50.53;20.05;;;;;;;-140.81;100.00;62400.31;5024512;28;20045;-50
2024/03/02 05:47:19;;;;;;;48.55;20.73;;;;;;;-140.81;100.00;62400.31;5025873;28;20034;-50
2024/03/02 05:49:45;;;;;;;47.38;21.92;;;;;;;-140.81;100.00;62400.31;5024458;28;20509;-49
2024/03/02 05:52:12;;;;;;;44.28;20.63;;;;;;;-140.81;100.00;62400.31;5026107;28;20049;-58
2024/03/02 05:54:38;;;;;;;51.40;20.80;;;;;;;-140.81;100.00;62400.31;5026063;28;20033;-53
2024/03/02 05:57:22;;;;;;;48.30;20.42;;;;;;;-140.81;100.00;62400.31;5025773;28;20596;-50
2024/03/02 05:59:48;;;;;;;49.92;19.48;;;;;;;-140.81;100.00;62400.31;5014444;28;20049;-49
2024/03/02 06:02:13;;;;;;;48.10;20.70;;;;;;;-140.81;100.00;62400.31;5024503;28;20098;-45
2024/03/02 06:04:39;;;;;;;40.33;18.58;;;;;;;-140.81;100.00;62400.31;5025821;28;20040;-49
2024/03/02 06:07:06;;;;;;;46.55;19.48;;;;;;;-140.81;100.00;62400.31;5008365;28;20052;-47
2024/03/02 06:09:32;;;;;;;44.58;20.30;;;;;;;-140.81;100.00;62400.31;5007956;28;20038;-52
2024/03/02 06:11:58;;;;;;;45.67;20.17;;;;;;;-140.81;100.00;62400.31;5025976;28;20041;-50
2024/03/02 06:14:24;;;;;;;47.90;19.35;;;;;;;-140.81;100.00;62400.31;5008338;28;20429;-48
2024/03/02 06:16:50;;;;;;;44.42;19.52;;;;;;;-140.81;100.00;62400.31;5024067;28;20128;-51
2024/03/02 06:19:16;;;;;;;42.90;19.88;;;;;;;-140.81;100.00;62400.31;5026033;28;20426;-52
2024/03/02 06:21:42;;;;;;;42.97;19.52;;;;;;;-140.81;100.00;62400.31;5024344;28;20048;-52
2024/03/02 06:24:08;;;;;;;45.65;20.38;;;;;;;-140.81;100.00;62400.31;5024289;28;20639;-53
2024/03/02 06:26:33;;;;;;;41.83;18.90;;;;;;;-140.81;100.00;62400.31;5024041;28;20061;-51
2024/03/02 06:28:59;;;;;;;45.28;19.33;;;;;;;-140.81;100.00;62400.31;5024538;28;20053;-47
2024/03/02 06:31:25;;;;;;;40.70;18.52;;;;;;;-140.81;100.00;62400.31;5021533;28;20041;-55
2024/03/02 06:33:51;;;;;;;43.67;20.20;;;;;;;-140.81;100.00;62400.31;5024060;28;20037;-50
2024/03/02 06:36:17;;;;;;;42.65;18.23;;;;;;;-140.81;100.00;62400.31;5023148;28;20500;-50
2024/03/02 06:38:43;;;;;;;48.30;18.73;;;;;;;-140.81;100.00;62400.31;5024400;28;20391;-52
2024/03/02 06:41:10;;;;;;;41.92;19.75;;;;;;;-140.81;100.00;62400.31;5023174;28;20037;-49
2024/03/02 06:43:38;;;;;;;42.13;19.83;;;;;;;-140.81;100.00;62400.31;5023675;28;20051;-53
2024/03/02 06:46:04;;;;;;;51.83;20.17;;;;;;;-140.81;100.00;62400.31;5023463;28;20513;-52
2024/03/02 06:48:31;;;;;;;44.25;18.48;;;;;;;-140.81;100.00;62400.31;5024687;28;20131;-52
2024/03/02 06:50:58;;;;;;;44.40;18.98;;;;;;;-140.81;100.00;62400.31;5023246;28;20046;-49
2024/03/02 06:53:24;;;;;;;50.05;19.73;;;;;;;-140.81;100.00;62400.31;5025198;28;20046;-46
2024/03/02 06:55:49;;;;;;;44.28;20.83;;;;;;;-140.81;100.00;62400.31;5023347;28;20051;-46
2024/03/02 06:58:16;;;;;;;43.65;20.20;;;;;;;-140.81;100.00;62400.31;5028748;28;20131;-49
2024/03/02 07:00:42;;;;;;;46.10;18.95;;;;;;;-140.81;100.00;62400.31;5029107;28;20048;-46
2024/03/02 07:03:08;;;;;;;45.30;19.63;;;;;;;-140.81;100.00;62400.31;5029430;28;20043;-49
2024/03/02 07:05:34;;;;;;;47.40;20.52;;;;;;;-140.81;100.00;62400.31;5028365;28;20671;-47
2024/03/02 07:08:01;;;;;;;45.35;20.73;;;;;;;-140.81;100.00;62400.31;5027509;28;20741;-54
2024/03/02 07:10:27;;;;;;;46.05;20.00;;;;;;;-140.81;100.00;62400.31;5027839;28;20040;-49
2024/03/02 07:12:53;;;;;;;42.67;19.95;;;;;;;-140.81;100.00;62400.31;5028851;28;20124;-50
2024/03/02 07:17:55;;;;;;;44.15;20.08;;;;;;;-140.81;100.00;62400.31;5024827;28;20034;-51
2024/03/02 07:20:21;;;;;;;54.50;20.42;;;;;;;-140.81;100.00;62400.31;5007546;28;20192;-53
2024/03/02 07:22:47;;;;;;;46.25;20.88;;;;;;;-140.81;100.00;62400.31;5018413;28;20051;-49
2024/03/02 07:25:13;;;;;;;49.95;20.42;;;;;;;-140.81;100.00;62400.31;5011500;28;20084;-48
2024/03/02 07:27:40;;;;;;;45.38;21.25;;;;;;;-140.81;100.00;62400.31;5028686;28;20146;-53
2024/03/02 07:30:07;;;;;;;47.88;21.45;;;;;;;-140.81;100.00;62400.31;5029410;28;20033;-48
2024/03/02 07:32:33;;;;;;;49.97;21.75;;;;;;;-140.81;100.00;62400.31;5028266;28;20045;-51
2024/03/02 07:35:01;;;;;;;46.45;19.27;;;;;;;-140.81;100.00;62400.31;5027364;28;20504;-53
2024/03/02 07:37:30;;;;;;;48.95;21.17;;;;;;;-140.81;100.00;62400.31;5026919;28;20627;-53
2024/03/02 07:39:56;;;;;;;51.03;21.85;;;;;;;-140.81;100.00;62400.31;5028877;28;20045;-50
2024/03/02 07:42:23;;;;;;;49.95;21.20;;;;;;;-140.81;100.00;62400.31;5028326;28;20048;-48
2024/03/02 07:44:49;;;;;;;49.90;21.60;;;;;;;-140.81;100.00;62400.31;5029146;28;20037;-49
2024/03/02 07:47:15;;;;;;;48.58;21.45;;;;;;;-140.81;100.00;62400.31;5015822;28;20688;-49
2024/03/02 07:49:41;;;;;;;55.95;22.45;;;;;;;-140.81;100.00;62400.31;5009304;28;20128;-51
2024/03/02 07:52:07;;;;;;;46.90;21.08;;;;;;;-140.81;100.00;62400.31;5041084;28;20045;-46
2024/03/02 07:54:33;;;;;;;51.08;21.95;;;;;;;-140.81;100.00;62400.31;5057010;28;20041;-52
2024/03/02 07:56:59;;;;;;;46.75;20.98;;;;;;;-140.81;100.00;62400.31;5005237;28;20421;-53
2024/03/02 07:59:25;;;;;;;46.95;22.23;;;;;;;-140.81;100.00;62400.31;5007076;28;20044;-51
2024/03/02 08:01:51;;;;;;;51.67;21.77;;;;;;;-140.81;100.00;62400.31;5013346;28;20045;-49
2024/03/02 08:04:17;;;;;;;46.83;21.77;;;;;;;-140.81;100.00;62400.31;5026824;28;20029;-51
2024/03/02 08:06:45;;;;;;;45.72;22.10;;;;;;;-140.81;100.00;62400.31;5026643;28;20045;-49
2024/03/02 08:09:11;;;;;;;45.17;20.80;;;;;;;-140.81;100.00;62400.31;5010046;28;20053;-53
2024/03/02 08:11:37;;;;;;;47.35;22.35;;;;;;;-140.81;100.00;62400.31;5025767;28;20505;-49
2024/03/02 08:14:03;;;;;;;43.20;21.33;;;;;;;-140.81;100.00;62400.31;5027518;28;20588;-51
2024/03/02 08:16:30;;;;;;;44.72;20.85;;;;;;;-140.81;100.00;62400.31;5026032;28;20045;-46
2024/03/02 08:18:58;;;;;;;46.88;21.20;;;;;;;-140.81;100.00;62400.31;5027946;28;20438;-53
2024/03/02 08:21:25;;;;;;;49.63;21.48;;;;;;;-140.81;100.00;62400.31;5026397;28;20076;-53
2024/03/02 08:23:51;;;;;;;49.35;21.77;;;;;;;-140.81;100.00;62400.31;5027700;28;20794;-49
2024/03/02 08:26:17;;;;;;;48.80;22.05;;;;;;;-140.81;100.00;62400.31;5027234;28;20045;-54
2024/03/02 08:28:43;;;;;;;42.78;20.80;;;;;;;-140.81;100.00;62400.31;5026766;28;20111;-55
2024/03/02 08:31:09;;;;;;;46.17;20.27;;;;;;;-140.81;100.00;62400.31;5027193;28;20041;-54
2024/03/02 08:33:35;;;;;;;39.20;19.98;;;;;;;-140.81;100.00;62400.31;5008587;28;20041;-47
2024/03/02 08:36:02;;;;;;;43.90;20.17;;;;;;;-140.81;100.00;62400.31;5026327;28;20051;-47
2024/03/02 08:38:29;;;;;;;40.20;19.35;;;;;;;-140.81;100.00;62400.31;5025595;28;20041;-46
2024/03/02 08:40:55;;;;;;;42.80;20.77;;;;;;;-140.81;100.00;62400.31;5025386;28;20041;-50
2024/03/02 08:43:22;;;;;;;40.65;20.48;;;;;;;-140.81;100.00;62400.31;5022944;28;20041;-54
2024/03/02 08:45:49;;;;;;;39.20;18.60;;;;;;;-140.81;100.00;62400.31;5011874;28;20690;-47
2024/03/02 08:48:15;;;;;;;45.17;20.05;;;;;;;-140.81;100.00;62400.31;5050324;28;20034;-49
2024/03/02 08:50:40;;;;;;;47.92;20.23;;;;;;;-140.81;100.00;62400.31;5027016;28;20059;-52
2024/03/02 08:53:07;;;;;;;38.42;19.52;;;;;;;-140.81;100.00;62400.31;5025298;28;20084;-50
2024/03/02 08:55:33;;;;;;;43.15;19.63;;;;;;;-140.81;100.00;62400.31;5024442;28;20064;-47
2024/03/02 08:57:59;;;;;;;47.85;20.42;;;;;;;-140.81;100.00;62400.31;5057324;28;20591;-50
2024/03/02 09:00:25;;;;;;;45.15;19.90;;;;;;;-140.81;100.00;62400.31;5026139;28;20047;-49
2024/03/02 09:02:53;;;;;;;36.63;20.35;;;;;;;-140.81;100.00;62400.31;5025878;28;20125;-52
2024/03/02 09:05:19;;;;;;;41.63;20.13;;;;;;;-140.81;100.00;62400.31;5024190;28;20045;-53
2024/03/02 09:07:45;;;;;;;37.50;19.15;;;;;;;-140.81;100.00;62400.31;5024977;28;20084;-52
2024/03/02 09:10:12;;;;;;;40.40;20.17;;;;;;;-140.81;100.00;62400.31;5024508;28;20397;-48
2024/03/02 09:12:38;;;;;;;41.67;20.42;;;;;;;-140.81;100.00;62400.31;5024584;28;20102;-48
2024/03/02 09:15:06;;;;;;;40.75;20.55;;;;;;;-140.81;100.00;62400.31;5007789;28;20410;-49
2024/03/02 09:17:31;;;;;;;40.88;20.27;;;;;;;-140.81;100.00;62400.31;5007225;28;20544;-49
2024/03/02 09:19:57;;;;;;;46.13;20.30;;;;;;;-140.81;100.00;62400.31;5025335;28;20141;-49
2024/03/02 09:22:24;;;;;;;41.97;19.52;;;;;;;-140.81;100.00;62400.31;5025345;28;20546;-48
2024/03/02 09:24:50;;;;;;;38.25;19.45;;;;;;;-140.81;100.00;62400.31;5026268;28;20505;-49
2024/03/02 09:27:18;;;;;;;39.45;19.30;;;;;;;-140.81;100.00;62400.31;5024559;28;20128;-49
2024/03/02 09:29:44;;;;;;;;;;;;;;;-140.81;100.00;62400.31;4984180;28;1244612;-51
2024/03/02 09:32:13;;;;;;;40.33;19.52;;;;;;;-140.81;100.00;62400.31;5005968;28;20145;-51
2024/03/02 09:34:40;;;;;;;36.50;18.90;;;;;;;-140.81;100.00;62400.31;5006291;28;20037;-51
2024/03/02 09:37:06;;;;;;;43.33;21.10;;;;;;;-140.81;100.00;62400.31;5025026;28;20045;-51
2024/03/02 09:39:32;;;;;;;40.70;19.73;;;;;;;-140.81;100.00;62400.31;5026716;28;20500;-54
2024/03/02 09:41:59;;;;;;;39.85;18.95;;;;;;;-140.81;100.00;62400.31;5008211;28;20498;-54
2024/03/02 09:44:26;;;;;;;41.30;20.45;;;;;;;-140.81;100.00;62400.31;5008790;28;20049;-52
2024/03/02 09:46:52;;;;;;;42.22;20.30;;;;;;;-140.81;100.00;62400.31;5025868;28;20417;-55
2024/03/02 09:49:18;;;;;;;41.17;21.02;;;;;;;-140.81;100.00;62400.31;5024722;28;20132;-53
2024/03/02 09:51:48;;;;;;;41.35;21.27;;;;;;;-140.81;100.00;62400.31;5025076;28;20576;-51
2024/03/02 09:54:17;;;;;;;38.28;19.85;;;;;;;-140.81;100.00;62400.31;5025650;28;20068;-49
2024/03/02 09:56:46;;;;;;;40.83;19.00;;;;;;;-140.81;100.00;62400.31;5025268;28;20041;-53
2024/03/02 09:59:16;;;;;;;40.83;19.70;;;;;;;-140.81;100.00;62400.31;5024280;28;20039;-52
2024/03/02 10:01:56;;;;;;;41.70;19.65;;;;;;;-140.81;100.00;62400.31;5025366;28;20051;-51
2024/03/02 10:04:22;;;;;;;39.42;20.50;;;;;;;-140.81;100.00;62400.31;5007352;28;20051;-52
2024/03/02 10:06:48;;;;;;;41.63;21.70;;;;;;;-140.81;100.00;62400.31;5025644;28;20037;-49
2024/03/02 10:09:28;;;;;;;39.70;19.25;;;;;;;-140.81;100.00;62400.31;5024785;28;20051;-52
2024/03/02 10:11:54;;;;;;;;;;;;;;;-140.81;100.00;62400.31;5025243;28;20126;-48
2024/03/02 10:14:20;;;;;;;35.15;17.30;;;;;;;-140.81;100.00;62400.31;5025818;28;20094;-49
2024/03/02 10:16:46;;;;;;;33.70;16.88;;;;;;;-140.81;100.00;62400.31;5007862;28;20037;-48
2024/03/02 10:19:19;;;;;;;38.28;17.05;;;;;;;-140.81;100.00;62400.31;5025337;28;20045;-49
2024/03/02 10:21:51;;;;;;;35.40;17.90;;;;;;;-140.81;100.00;62400.31;5025913;28;20088;-51
2024/03/02 10:24:24;;;;;;;37.88;16.92;;;;;;;-140.81;100.00;62400.31;5023999;28;20076;-52
2024/03/02 10:26:50;;;;;;;35.30;17.15;;;;;;;-140.81;100.00;62400.31;4996125;28;20042;-49
2024/03/02 10:29:17;;;;;;;32.78;17.05;;;;;;;-140.81;100.00;62400.31;5024567;28;20637;-50
2024/03/02 10:31:46;;;;;;;36.83;18.02;;;;;;;-140.81;100.00;62400.31;5008589;28;20059;-52
2024/03/02 10:34:13;;;;;;;34.15;17.45;;;;;;;-140.81;100.00;62400.31;5007960;28;20508;-48
2024/03/02 10:36:43;;;;;;;36.13;17.77;;;;;;;-140.81;100.00;62400.31;5025802;28;20041;-52
2024/03/02 10:39:10;;;;;;;40.90;18.90;;;;;;;-140.81;100.00;62400.31;5024694;28;20041;-48
2024/03/02 10:41:38;;;;;;;38.20;17.85;;;;;;;-140.81;100.00;62400.31;4974963;28;20508;-48
2024/03/02 10:44:06;;;;;;;37.35;17.50;;;;;;;-140.81;100.00;62400.31;4993520;28;20038;-53
2024/03/02 10:46:35;;;;;;;33.38;17.17;;;;;;;-140.81;100.00;62400.31;5037729;28;20083;-50
2024/03/02 10:49:03;;;;;;;36.38;17.60;;;;;;;-140.81;100.00;62400.31;5015888;28;20136;-50
2024/03/02 10:51:31;;;;;;;39.30;18.27;;;;;;;-140.81;100.00;62400.31;5026159;28;20129;-52
2024/03/02 10:54:00;;;;;;;37.28;16.63;;;;;;;-140.81;100.00;62400.31;4991665;28;20045;-47
2024/03/02 10:56:31;;;;;;;33.80;17.27;;;;;;;-140.81;100.00;62400.31;5012058;28;20041;-50
2024/03/02 10:59:24;;;;;;;37.63;17.52;;;;;;;-140.81;100.00;62400.31;5009213;28;20049;-48